Time;durP1;ratioP1;P1;durP2;ratioP2;P2;SDS_P1;SDS_P2;PMS_P1;PMS_P2;Temp;Humidity;BMP_temperature;BMP_pressure;BME280_temperature;BME280_humidity;BME280_pressure;Samples;Min_cycle;Max_cycle;Signal;HPM_P1;HPM_P2
2022/10/24 00:02:16;;;;;;;5.60;3.23;;;14.50;99.90;;;;;;5034433;28;20769;-87
2022/10/24 00:04:42;;;;;;;5.20;3.00;;;14.50;99.90;;;;;;5016465;28;20182;-87
2022/10/24 00:07:08;;;;;;;11.03;3.43;;;14.50;99.90;;;;;;5021206;28;20518;-87
2022/10/24 00:09:34;;;;;;;8.07;3.30;;;14.40;99.90;;;;;;5034099;28;20425;-87
2022/10/24 00:12:01;;;;;;;6.10;3.07;;;14.50;99.90;;;;;;5032725;28;20425;-87
2022/10/24 00:14:27;;;;;;;13.57;4.80;;;14.50;99.90;;;;;;5016940;28;20468;-87
2022/10/24 00:16:52;;;;;;;3.97;2.63;;;14.60;99.90;;;;;;5016262;28;20428;-88
2022/10/24 00:19:18;;;;;;;11.87;4.07;;;14.60;99.90;;;;;;5000473;28;20447;-88
2022/10/24 00:21:44;;;;;;;8.97;3.10;;;14.60;99.90;;;;;;5032533;28;20588;-88
2022/10/24 00:24:09;;;;;;;10.17;3.40;;;14.70;99.90;;;;;;5034084;28;20183;-87
2022/10/24 00:26:35;;;;;;;6.57;3.10;;;14.80;99.90;;;;;;5000072;28;20581;-87
2022/10/24 00:29:01;;;;;;;6.77;2.77;;;14.80;99.90;;;;;;5033492;28;20189;-87
2022/10/24 00:31:27;;;;;;;8.47;2.60;;;14.70;99.90;;;;;;5016524;28;20413;-88
2022/10/24 00:33:55;;;;;;;11.43;3.30;;;14.70;99.90;;;;;;5033538;28;20438;-87
2022/10/24 00:36:22;;;;;;;9.00;3.40;;;14.70;99.90;;;;;;5033775;28;20417;-87
2022/10/24 00:38:49;;;;;;;6.87;2.93;;;14.70;99.90;;;;;;5015494;28;20483;-88
2022/10/24 00:41:19;;;;;;;7.83;2.90;;;14.70;99.90;;;;;;5015911;28;20498;-86
2022/10/24 00:43:44;;;;;;;9.10;2.70;;;14.60;99.90;;;;;;5015729;28;20413;-87
2022/10/24 00:46:11;;;;;;;8.43;2.90;;;14.60;99.90;;;;;;5013841;28;20428;-86
2022/10/24 00:48:44;;;;;;;5.23;2.50;;;14.60;99.90;;;;;;4994024;28;20232;-88
2022/10/24 00:51:26;;;;;;;5.60;3.03;;;14.60;99.90;;;;;;5027796;28;20425;-87
2022/10/24 00:54:05;;;;;;;14.13;3.40;;;14.60;99.90;;;;;;5015773;28;20491;-87
2022/10/24 00:56:35;;;;;;;7.10;2.80;;;14.60;99.90;;;;;;5033786;28;20797;-86
2022/10/24 00:59:04;;;;;;;7.90;2.97;;;14.60;99.90;;;;;;5032084;28;20409;-87
2022/10/24 01:01:30;;;;;;;5.80;2.57;;;14.60;99.90;;;;;;5033086;28;20421;-86
2022/10/24 01:03:56;;;;;;;6.17;3.07;;;14.60;99.90;;;;;;5032920;28;20417;-87
2022/10/24 01:06:39;;;;;;;12.47;3.50;;;14.60;99.90;;;;;;5033442;28;20405;-87
2022/10/24 01:09:23;;;;;;;8.43;3.77;;;14.60;99.90;;;;;;5031998;28;20225;-87
2022/10/24 01:11:54;;;;;;;6.10;3.40;;;14.50;99.90;;;;;;5031668;28;20416;-87
2022/10/24 01:14:26;;;;;;;6.00;2.60;;;14.50;99.90;;;;;;5033149;28;20482;-87
2022/10/24 01:17:10;;;;;;;9.53;3.07;;;14.50;99.90;;;;;;5031739;28;20429;-87
2022/10/24 01:19:57;;;;;;;6.77;3.37;;;14.50;99.90;;;;;;5033734;28;20772;-87
2022/10/24 01:22:42;;;;;;;8.90;2.73;;;14.40;99.90;;;;;;5032324;28;20485;-87
2022/10/24 01:25:14;;;;;;;7.53;3.40;;;14.40;99.90;;;;;;5032900;28;20499;-87
2022/10/24 01:27:57;;;;;;;8.50;3.90;;;14.40;99.90;;;;;;5033237;28;20432;-86
2022/10/24 01:30:24;;;;;;;10.90;3.03;;;14.50;99.90;;;;;;5031722;28;20440;-87
2022/10/24 01:32:52;;;;;;;9.17;3.10;;;14.50;99.90;;;;;;5032542;28;20440;-87
2022/10/24 01:35:27;;;;;;;5.63;2.63;;;14.50;99.90;;;;;;5032918;28;20798;-87
2022/10/24 01:38:01;;;;;;;6.57;2.43;;;14.50;99.90;;;;;;5032590;28;20428;-86
2022/10/24 01:40:35;;;;;;;9.00;3.43;;;14.60;99.90;;;;;;5031713;28;20428;-86
2022/10/24 01:43:08;;;;;;;7.10;2.80;;;14.60;99.90;;;;;;5032858;28;20406;-87
2022/10/24 01:45:37;;;;;;;6.83;3.00;;;14.60;99.90;;;;;;5014991;28;20421;-86
2022/10/24 01:48:06;;;;;;;6.10;2.40;;;14.60;99.90;;;;;;5032389;28;20436;-86
2022/10/24 01:50:34;;;;;;;9.97;2.73;;;14.60;99.90;;;;;;5032923;28;20444;-86
2022/10/24 01:53:01;;;;;;;10.87;2.57;;;14.50;99.90;;;;;;4998644;28;20417;-86
2022/10/24 01:55:27;;;;;;;10.17;2.80;;;14.50;99.90;;;;;;5032907;28;20476;-87
2022/10/24 01:57:52;;;;;;;8.53;3.10;;;14.50;99.90;;;;;;5031664;28;20519;-86
2022/10/24 02:00:21;;;;;;;8.03;3.23;;;14.40;99.90;;;;;;4998867;28;20475;-86
2022/10/24 02:02:58;;;;;;;8.13;3.10;;;14.40;99.90;;;;;;4999020;28;20721;-86
2022/10/24 02:05:37;;;;;;;5.73;2.50;;;14.30;99.90;;;;;;5019115;28;20432;-87
2022/10/24 02:08:13;;;;;;;7.50;3.07;;;14.20;99.90;;;;;;5036307;28;20436;-86
2022/10/24 02:10:46;;;;;;;6.00;2.20;;;14.20;99.90;;;;;;5018932;28;20423;-86
2022/10/24 02:13:22;;;;;;;7.53;2.53;;;14.10;99.90;;;;;;5035073;28;20462;-87
2022/10/24 02:15:52;;;;;;;9.80;3.47;;;14.10;99.90;;;;;;5034998;28;20566;-86
2022/10/24 02:18:18;;;;;;;3.00;2.10;;;14.10;99.90;;;;;;5035342;28;20465;-86
2022/10/24 02:21:03;;;;;;;16.27;3.17;;;14.10;99.90;;;;;;5037140;28;20412;-86
2022/10/24 02:23:52;;;;;;;9.43;3.03;;;14.10;99.90;;;;;;5041844;28;20455;-86
2022/10/24 02:26:27;;;;;;;6.63;2.20;;;14.10;99.90;;;;;;5041800;28;20792;-86
2022/10/24 02:28:57;;;;;;;3.93;2.13;;;14.00;99.90;;;;;;5029726;28;20474;-87
2022/10/24 02:31:28;;;;;;;8.33;2.43;;;14.00;99.90;;;;;;5031382;28;20448;-86
2022/10/24 02:33:55;;;;;;;8.07;2.40;;;13.90;99.90;;;;;;5030546;28;20477;-86
2022/10/24 02:36:26;;;;;;;7.40;3.20;;;13.90;99.90;;;;;;5031039;28;20440;-86
2022/10/24 02:38:54;;;;;;;8.20;2.63;;;13.90;99.90;;;;;;5016843;28;20517;-86
2022/10/24 02:41:25;;;;;;;4.33;2.30;;;13.90;99.90;;;;;;5034389;28;20432;-86
2022/10/24 02:43:51;;;;;;;7.07;2.33;;;13.90;99.90;;;;;;5035930;28;20412;-86
2022/10/24 02:46:18;;;;;;;4.40;1.80;;;14.00;99.90;;;;;;5018126;28;20500;-87
2022/10/24 02:48:50;;;;;;;4.97;2.90;;;14.10;99.90;;;;;;5035860;28;20448;-87
2022/10/24 02:51:19;;;;;;;5.90;2.53;;;14.00;99.90;;;;;;5018110;28;20417;-86
2022/10/24 02:53:45;;;;;;;4.97;2.83;;;13.90;99.90;;;;;;5035860;28;20405;-86
2022/10/24 02:56:11;;;;;;;3.77;2.63;;;13.90;99.90;;;;;;5035198;28;20409;-86
2022/10/24 02:58:37;;;;;;;12.23;3.27;;;13.90;99.90;;;;;;5035321;28;20971;-86
2022/10/24 03:01:03;;;;;;;10.40;2.67;;;14.00;99.90;;;;;;5017496;28;20185;-86
2022/10/24 03:03:28;;;;;;;8.30;2.70;;;14.00;99.90;;;;;;5001737;28;20913;-86
2022/10/24 03:05:54;;;;;;;7.80;2.30;;;14.00;99.90;;;;;;5034438;28;20182;-86
2022/10/24 03:08:19;;;;;;;4.87;2.10;;;14.10;99.90;;;;;;4985302;28;20277;-86
2022/10/24 03:10:45;;;;;;;9.43;2.87;;;14.20;99.90;;;;;;5035254;28;20178;-86
2022/10/24 03:13:11;;;;;;;3.43;1.93;;;14.20;99.90;;;;;;5035169;28;20175;-86
2022/10/24 03:15:36;;;;;;;4.50;2.10;;;14.30;99.90;;;;;;5017001;28;20207;-86
2022/10/24 03:18:02;;;;;;;10.70;3.20;;;14.40;99.90;;;;;;5017361;28;20274;-86
2022/10/24 03:20:27;;;;;;;4.03;2.30;;;14.50;99.90;;;;;;5001416;28;20181;-86
2022/10/24 03:22:53;;;;;;;3.93;1.53;;;14.50;99.90;;;;;;5017478;28;20178;-86
2022/10/24 03:25:19;;;;;;;6.47;2.30;;;14.50;99.90;;;;;;5001225;28;20244;-86
2022/10/24 03:27:44;;;;;;;6.60;2.40;;;14.60;99.90;;;;;;5035039;28;20202;-86
2022/10/24 03:30:10;;;;;;;6.53;1.90;;;14.60;99.90;;;;;;5017124;28;20184;-86
2022/10/24 03:32:36;;;;;;;6.40;1.70;;;14.70;99.90;;;;;;5001332;28;20776;-85
2022/10/24 03:35:02;;;;;;;3.67;1.77;;;14.60;99.90;;;;;;5017291;28;20467;-86
2022/10/24 03:37:27;;;;;;;9.27;2.33;;;14.60;99.90;;;;;;5017426;28;20232;-86
2022/10/24 03:39:53;;;;;;;5.67;2.03;;;14.60;99.90;;;;;;5033349;28;20487;-86
2022/10/24 03:42:19;;;;;;;2.40;1.90;;;14.60;99.90;;;;;;5035225;28;20181;-86
2022/10/24 03:44:45;;;;;;;4.83;1.53;;;14.60;99.90;;;;;;5017571;28;20460;-86
2022/10/24 03:47:11;;;;;;;6.63;1.90;;;14.60;99.90;;;;;;5034702;28;21001;-86
2022/10/24 03:49:36;;;;;;;5.83;1.73;;;14.60;99.90;;;;;;5017057;28;20196;-85
2022/10/24 03:52:02;;;;;;;3.03;1.57;;;14.70;99.90;;;;;;5033068;28;20524;-86
2022/10/24 03:54:28;;;;;;;4.00;1.63;;;14.70;99.90;;;;;;5000856;28;20587;-86
2022/10/24 03:56:53;;;;;;;3.30;1.87;;;14.80;99.90;;;;;;5000268;28;20236;-85
2022/10/24 03:59:19;;;;;;;11.50;3.17;;;14.90;99.90;;;;;;5034659;28;20579;-85
2022/10/24 04:01:44;;;;;;;6.80;1.67;;;15.00;99.90;;;;;;5017107;28;20178;-84
2022/10/24 04:04:10;;;;;;;4.10;1.60;;;15.00;99.90;;;;;;5034581;28;20214;-85
2022/10/24 04:06:36;;;;;;;5.10;1.83;;;15.00;99.90;;;;;;5034294;28;20192;-85
2022/10/24 04:09:01;;;;;;;7.17;2.70;;;14.90;99.90;;;;;;5032922;28;20188;-85
2022/10/24 04:11:27;;;;;;;6.30;1.40;;;14.70;99.90;;;;;;5000589;28;20182;-85
2022/10/24 04:13:53;;;;;;;6.03;1.77;;;14.70;99.90;;;;;;5016673;28;20679;-85
2022/10/24 04:16:19;;;;;;;8.83;3.13;;;14.70;99.90;;;;;;5022933;28;20293;-86
2022/10/24 04:18:45;;;;;;;4.70;1.70;;;14.70;99.90;;;;;;5014714;28;20175;-85
2022/10/24 04:21:10;;;;;;;7.27;1.87;;;14.70;99.90;;;;;;5014129;28;20413;-86
2022/10/24 04:23:39;;;;;;;3.93;1.33;;;14.70;99.90;;;;;;5014682;28;20898;-86
2022/10/24 04:26:07;;;;;;;6.40;1.43;;;14.70;99.90;;;;;;5028161;28;20177;-85
2022/10/24 04:28:33;;;;;;;5.13;1.90;;;14.60;99.90;;;;;;5014203;28;20818;-86
2022/10/24 04:30:59;;;;;;;3.83;1.47;;;14.60;99.90;;;;;;4996300;28;20425;-85
2022/10/24 04:33:25;;;;;;;2.77;1.30;;;14.60;99.90;;;;;;5013085;28;20989;-85
2022/10/24 04:35:51;;;;;;;9.10;2.00;;;14.60;99.90;;;;;;4996588;28;20624;-86
2022/10/24 04:38:18;;;;;;;2.37;1.30;;;14.60;99.90;;;;;;5012121;28;20969;-86
2022/10/24 04:40:52;;;;;;;5.00;1.57;;;14.60;99.90;;;;;;5014065;28;20409;-84
2022/10/24 04:43:18;;;;;;;4.90;1.63;;;14.70;99.90;;;;;;4996236;28;20825;-85
2022/10/24 04:45:44;;;;;;;3.60;1.87;;;14.70;99.90;;;;;;5013872;28;20384;-85
2022/10/24 04:48:09;;;;;;;4.40;1.33;;;14.70;99.90;;;;;;5013635;28;20762;-86
2022/10/24 04:50:35;;;;;;;6.03;1.87;;;14.70;99.90;;;;;;4996707;28;20244;-85
2022/10/24 04:53:01;;;;;;;3.23;1.30;;;14.70;99.90;;;;;;5013889;28;20224;-85
2022/10/24 04:55:27;;;;;;;6.90;1.50;;;14.70;99.90;;;;;;5012423;28;20461;-86
2022/10/24 04:57:53;;;;;;;4.40;1.40;;;14.70;99.90;;;;;;5012342;28;20183;-85
2022/10/24 05:00:18;;;;;;;4.23;1.50;;;14.70;99.90;;;;;;5028949;28;20410;-86
2022/10/24 05:02:44;;;;;;;6.90;1.70;;;14.70;99.90;;;;;;5013822;28;20317;-85
2022/10/24 05:05:10;;;;;;;4.60;1.50;;;14.80;99.90;;;;;;5012386;28;20778;-86
2022/10/24 05:07:35;;;;;;;2.60;1.53;;;14.80;99.90;;;;;;5028983;28;20187;-84
2022/10/24 05:10:02;;;;;;;2.60;1.30;;;14.80;99.90;;;;;;5028739;28;20183;-84
2022/10/24 05:12:28;;;;;;;3.13;1.67;;;14.70;99.90;;;;;;5032363;28;20209;-84
2022/10/24 05:14:53;;;;;;;4.00;1.67;;;14.70;99.90;;;;;;5035148;28;20466;-84
2022/10/24 05:17:19;;;;;;;3.00;1.43;;;14.60;99.90;;;;;;5029592;28;20181;-84
2022/10/24 05:19:45;;;;;;;3.20;2.10;;;14.50;99.90;;;;;;5012606;28;20261;-84
2022/10/24 05:22:10;;;;;;;3.70;1.47;;;14.50;99.90;;;;;;5028457;28;20193;-85
2022/10/24 05:24:36;;;;;;;5.93;1.80;;;14.60;99.90;;;;;;5013482;28;20565;-84
2022/10/24 05:27:01;;;;;;;3.83;1.57;;;14.60;99.90;;;;;;5012179;28;20229;-84
2022/10/24 05:29:27;;;;;;;5.33;1.73;;;14.60;99.90;;;;;;5013535;28;20239;-84
2022/10/24 05:31:53;;;;;;;3.10;1.30;;;14.60;99.90;;;;;;5028553;28;20179;-84
2022/10/24 05:34:18;;;;;;;2.63;1.37;;;14.50;99.90;;;;;;5028385;28;20238;-84
2022/10/24 05:36:44;;;;;;;5.80;1.90;;;14.50;99.90;;;;;;5028995;28;20182;-84
2022/10/24 05:39:10;;;;;;;6.67;1.33;;;14.50;99.90;;;;;;5017036;28;20226;-84
2022/10/24 05:41:35;;;;;;;1.07;0.80;;;14.40;99.90;;;;;;4999941;28;20426;-84
2022/10/24 05:44:01;;;;;;;3.57;1.20;;;14.50;99.90;;;;;;5017284;28;20179;-84
2022/10/24 05:46:27;;;;;;;3.63;1.83;;;14.60;99.90;;;;;;5016537;28;20189;-84
2022/10/24 05:48:52;;;;;;;3.53;1.03;;;14.60;99.90;;;;;;5017469;28;20194;-84
2022/10/24 05:51:18;;;;;;;3.03;1.60;;;14.60;99.90;;;;;;5032478;28;20186;-84
2022/10/24 05:53:43;;;;;;;6.73;1.30;;;14.60;99.90;;;;;;4999518;28;20547;-83
2022/10/24 05:56:09;;;;;;;3.43;1.40;;;14.60;99.90;;;;;;5016019;28;20185;-84
2022/10/24 05:58:34;;;;;;;5.30;1.80;;;14.50;99.90;;;;;;5017270;28;20186;-84
2022/10/24 06:01:00;;;;;;;2.10;1.30;;;14.40;99.90;;;;;;4999589;28;20305;-84
2022/10/24 06:03:26;;;;;;;1.93;1.50;;;14.30;99.90;;;;;;5012189;28;20648;-83
2022/10/24 06:05:52;;;;;;;3.23;1.13;;;14.30;99.90;;;;;;5012090;28;20406;-84
2022/10/24 06:08:17;;;;;;;3.83;1.47;;;14.20;99.90;;;;;;4993217;28;20266;-84
2022/10/24 06:10:48;;;;;;;3.50;1.73;;;14.20;99.90;;;;;;5011005;28;20549;-84
2022/10/24 06:13:14;;;;;;;4.50;1.57;;;14.10;99.90;;;;;;4994688;28;20205;-84
2022/10/24 06:15:41;;;;;;;5.20;1.60;;;14.10;99.90;;;;;;4997947;28;20469;-84
2022/10/24 06:18:07;;;;;;;3.33;1.20;;;14.00;99.90;;;;;;5015344;28;20982;-84
2022/10/24 06:20:32;;;;;;;3.63;1.20;;;14.00;99.90;;;;;;5032536;28;20533;-84
2022/10/24 06:22:58;;;;;;;3.50;1.70;;;14.00;99.90;;;;;;5015389;28;20183;-84
2022/10/24 06:25:23;;;;;;;7.13;1.63;;;13.90;99.90;;;;;;4998834;28;20198;-84
2022/10/24 06:27:49;;;;;;;8.10;2.03;;;13.90;99.90;;;;;;4999220;28;20293;-84
2022/10/24 06:30:15;;;;;;;9.90;1.40;;;13.90;99.90;;;;;;5015598;28;20206;-84
2022/10/24 06:32:40;;;;;;;3.80;1.70;;;13.80;99.90;;;;;;5013352;28;20583;-83
2022/10/24 06:35:06;;;;;;;7.10;3.00;;;13.80;99.90;;;;;;5013731;28;20229;-83
2022/10/24 06:37:32;;;;;;;4.53;1.87;;;13.80;99.90;;;;;;5014913;28;20183;-85
2022/10/24 06:39:58;;;;;;;4.67;1.67;;;13.70;99.90;;;;;;5017212;28;20493;-85
2022/10/24 06:42:24;;;;;;;4.03;1.43;;;13.80;99.90;;;;;;5013979;28;20198;-83
2022/10/24 06:44:50;;;;;;;3.37;1.37;;;13.80;99.90;;;;;;5016746;28;20444;-85
2022/10/24 06:47:16;;;;;;;3.37;1.50;;;13.80;99.90;;;;;;4984847;28;20213;-85
2022/10/24 06:49:41;;;;;;;5.17;1.70;;;13.80;99.90;;;;;;5000726;28;20421;-84
2022/10/24 06:52:07;;;;;;;7.30;1.83;;;13.90;99.90;;;;;;5035241;28;20416;-85
2022/10/24 06:54:34;;;;;;;4.27;1.30;;;13.90;99.90;;;;;;5001345;28;20291;-86
2022/10/24 06:56:59;;;;;;;6.13;1.80;;;13.90;99.90;;;;;;5034696;28;20269;-85
2022/10/24 06:59:25;;;;;;;7.70;1.40;;;14.10;99.90;;;;;;5034422;28;20503;-85
2022/10/24 07:01:51;;;;;;;1.80;1.00;;;14.10;99.90;;;;;;5019039;28;20217;-94
2022/10/24 07:04:17;;;;;;;2.50;1.20;;;14.20;99.90;;;;;;5024550;28;20440;-93
2022/10/24 07:06:43;;;;;;;3.87;1.30;;;14.20;99.90;;;;;;5004993;28;20178;-94
2022/10/24 07:09:10;;;;;;;5.80;1.40;;;14.20;99.90;;;;;;5020883;28;20194;-93
2022/10/24 07:11:35;;;;;;;5.90;1.50;;;14.30;99.90;;;;;;5041007;28;20414;-95
2022/10/24 07:14:01;;;;;;;2.87;1.20;;;14.30;99.90;;;;;;5006219;28;20512;-95
2022/10/24 07:16:28;;;;;;;9.80;1.50;;;14.40;99.90;;;;;;5041105;28;20193;-94
2022/10/24 07:18:53;;;;;;;3.23;1.50;;;14.40;99.90;;;;;;5025114;28;20255;-94
2022/10/24 07:21:22;;;;;;;3.33;1.80;;;14.50;99.90;;;;;;5007339;28;20452;-93
2022/10/24 07:23:50;;;;;;;4.30;1.20;;;14.60;99.90;;;;;;5023084;28;20181;-95
2022/10/24 07:26:17;;;;;;;5.97;1.23;;;14.60;99.90;;;;;;5022412;28;20479;-95
2022/10/24 07:28:45;;;;;;;3.30;1.57;;;14.70;99.90;;;;;;5023048;28;20416;-94
2022/10/24 07:31:15;;;;;;;7.53;1.50;;;14.70;99.90;;;;;;5022141;28;20468;-94
2022/10/24 07:33:41;;;;;;;4.40;1.43;;;14.80;99.90;;;;;;5024683;28;20409;-94
2022/10/24 07:36:07;;;;;;;8.33;2.07;;;14.90;99.90;;;;;;5020917;28;20422;-94
2022/10/24 07:38:33;;;;;;;6.70;1.63;;;15.00;99.90;;;;;;5039243;28;20572;-93
2022/10/24 07:41:03;;;;;;;4.87;1.83;;;15.10;99.90;;;;;;5005576;28;20421;-94
2022/10/24 07:43:28;;;;;;;4.77;1.47;;;15.30;99.90;;;;;;5040026;28;20178;-94
2022/10/24 07:45:54;;;;;;;4.50;1.30;;;15.40;99.90;;;;;;5009562;28;20424;-93
2022/10/24 07:48:19;;;;;;;4.77;1.67;;;15.50;99.90;;;;;;5024397;28;20186;-94
2022/10/24 07:50:46;;;;;;;4.40;1.40;;;15.50;99.90;;;;;;5021210;28;20560;-93
2022/10/24 07:53:13;;;;;;;11.90;2.20;;;15.60;99.90;;;;;;5030861;28;20184;-91
2022/10/24 07:55:47;;;;;;;8.00;1.60;;;15.80;99.90;;;;;;5036525;28;20435;-90
2022/10/24 07:58:15;;;;;;;7.00;1.77;;;15.80;99.90;;;;;;5065300;22;20483;-93
2022/10/24 08:00:41;;;;;;;3.60;1.33;;;15.90;99.90;;;;;;5094134;28;20385;-93
2022/10/24 08:03:06;;;;;;;5.20;1.50;;;16.00;99.90;;;;;;5092166;28;20455;-90
2022/10/24 08:05:32;;;;;;;1.80;1.23;;;16.00;99.90;;;;;;5068363;28;20184;-94
2022/10/24 08:07:58;;;;;;;6.90;1.70;;;16.10;99.90;;;;;;5067132;28;20177;-91
2022/10/24 08:10:24;;;;;;;6.37;1.50;;;16.20;99.90;;;;;;5050525;28;20220;-94
2022/10/24 08:12:49;;;;;;;2.77;1.17;;;16.30;99.90;;;;;;5063181;28;20181;-95
2022/10/24 08:15:15;;;;;;;4.00;1.40;;;16.40;99.90;;;;;;5061459;28;20212;-95
2022/10/24 08:17:41;;;;;;;7.90;1.67;;;16.50;99.90;;;;;;5048999;28;20244;-94
2022/10/24 08:20:07;;;;;;;3.03;1.00;;;16.60;99.90;;;;;;5065363;28;20238;-91
2022/10/24 08:22:34;;;;;;;3.97;1.10;;;16.70;99.90;;;;;;5062226;28;20181;-92
2022/10/24 08:25:01;;;;;;;2.97;1.47;;;16.80;99.90;;;;;;5057121;28;20655;-93
2022/10/24 08:27:26;;;;;;;7.37;1.30;;;16.90;99.90;;;;;;5058006;28;20442;-93
2022/10/24 08:29:52;;;;;;;5.37;1.43;;;17.00;99.90;;;;;;5077031;28;20407;-93
2022/10/24 08:32:18;;;;;;;9.73;2.27;;;17.10;99.90;;;;;;5081583;28;20412;-94
2022/10/24 08:34:44;;;;;;;5.03;1.77;;;17.20;99.90;;;;;;5062967;28;20209;-94
2022/10/24 08:37:09;;;;;;;4.97;1.60;;;17.20;99.90;;;;;;5063242;28;20177;-93
2022/10/24 08:39:36;;;;;;;4.30;1.60;;;17.20;99.90;;;;;;5061286;28;20179;-94
2022/10/24 08:42:05;;;;;;;3.73;1.17;;;17.30;99.90;;;;;;5061204;28;20183;-93
2022/10/24 08:44:39;;;;;;;7.30;1.70;;;17.50;99.90;;;;;;5078685;28;20430;-94
2022/10/24 08:47:43;;;;;;;6.93;1.60;;;17.60;99.90;;;;;;5060017;28;20397;-95
2022/10/24 08:50:33;;;;;;;6.60;1.60;;;17.70;99.90;;;;;;5059053;28;20774;-92
2022/10/24 08:53:08;;;;;;;5.03;1.00;;;17.80;99.90;;;;;;5058819;28;20426;-94
2022/10/24 08:55:48;;;;;;;3.57;1.30;;;17.90;99.90;;;;;;5060102;28;20437;-94
2022/10/24 08:58:19;;;;;;;6.77;1.40;;;18.00;99.90;;;;;;5077396;28;20441;-93
2022/10/24 09:00:48;;;;;;;5.53;1.47;;;18.10;99.90;;;;;;5059730;28;20397;-95
2022/10/24 09:03:32;;;;;;;8.10;1.20;;;18.10;99.90;;;;;;5058983;28;20415;-93
2022/10/24 09:06:12;;;;;;;5.50;1.20;;;18.10;99.90;;;;;;5062023;28;20430;-95
2022/10/24 09:08:43;;;;;;;4.97;1.27;;;18.10;99.90;;;;;;5079072;28;20476;-94
2022/10/24 09:11:28;;;;;;;4.60;1.30;;;18.10;99.90;;;;;;5059738;28;20415;-93
2022/10/24 09:13:54;;;;;;;9.40;1.70;;;18.20;99.90;;;;;;5060220;28;20382;-95
2022/10/24 09:16:22;;;;;;;3.90;1.53;;;18.20;99.90;;;;;;5058822;28;20447;-93
2022/10/24 09:18:52;;;;;;;4.57;1.30;;;18.30;99.90;;;;;;5059858;28;20199;-93
2022/10/24 09:21:18;;;;;;;6.07;1.60;;;18.30;99.90;;;;;;5062485;28;20960;-94
2022/10/24 09:23:44;;;;;;;5.67;1.80;;;18.40;99.90;;;;;;5059110;28;20415;-93
2022/10/24 09:26:23;;;;;;;4.63;1.57;;;18.40;99.90;;;;;;5060058;28;20823;-94
2022/10/24 09:28:48;;;;;;;5.03;1.30;;;18.40;99.90;;;;;;5061304;28;20508;-94
2022/10/24 09:31:20;;;;;;;8.50;2.10;;;18.50;99.90;;;;;;5065669;28;20451;-95
2022/10/24 09:33:48;;;;;;;4.90;1.67;;;18.50;99.90;;;;;;5067622;28;20181;-94
2022/10/24 09:36:17;;;;;;;6.70;1.73;;;18.60;99.90;;;;;;5063807;28;20430;-93
2022/10/24 09:38:43;;;;;;;5.10;1.53;;;18.50;99.90;;;;;;5047050;28;20423;-94
2022/10/24 09:41:23;;;;;;;9.50;2.30;;;18.50;99.90;;;;;;5080783;28;20378;-94
2022/10/24 09:43:54;;;;;;;2.30;1.07;;;18.50;99.90;;;;;;5081478;28;20403;-93
2022/10/24 09:46:25;;;;;;;3.97;1.40;;;18.40;99.90;;;;;;5079145;28;20384;-91
2022/10/24 09:49:00;;;;;;;5.63;1.57;;;18.40;99.90;;;;;;5085708;28;20415;-93
2022/10/24 09:51:32;;;;;;;4.53;1.70;;;18.40;99.90;;;;;;5065558;28;20433;-91
2022/10/24 09:54:03;;;;;;;4.57;1.47;;;18.30;99.90;;;;;;5059970;28;20397;-93
2022/10/24 09:56:38;;;;;;;3.83;1.13;;;18.20;99.90;;;;;;5059701;28;20447;-93
2022/10/24 09:59:31;;;;;;;8.30;2.50;;;18.30;99.90;;;;;;5077244;28;20423;-95
2022/10/24 10:02:25;;;;;;;9.17;3.50;;;18.30;99.90;;;;;;5058467;28;20423;-94
2022/10/24 10:05:03;;;;;;;2.83;1.20;;;18.40;99.90;;;;;;5056495;28;20437;-94
2022/10/24 10:07:30;;;;;;;5.23;1.30;;;18.50;99.90;;;;;;5062669;28;20426;-93
2022/10/24 10:10:04;;;;;;;7.77;1.50;;;18.40;99.90;;;;;;5061326;28;20434;-93
2022/10/24 10:12:39;;;;;;;2.43;1.20;;;18.60;99.90;;;;;;5060104;28;20415;-93
2022/10/24 10:15:25;;;;;;;5.37;1.37;;;18.60;99.90;;;;;;5060065;28;20561;-93
2022/10/24 10:17:55;;;;;;;6.93;1.57;;;18.60;99.90;;;;;;5059446;28;20429;-92
2022/10/24 10:20:49;;;;;;;5.60;1.50;;;18.60;99.90;;;;;;5060960;28;20465;-92
2022/10/24 10:23:24;;;;;;;7.83;1.50;;;18.70;99.90;;;;;;5050654;28;20750;-94
2022/10/24 10:26:05;;;;;;;7.13;1.17;;;18.70;99.90;;;;;;5064676;28;20388;-93
2022/10/24 10:28:35;;;;;;;4.03;1.23;;;18.70;99.90;;;;;;5067619;28;20864;-93
2022/10/24 10:31:03;;;;;;;5.40;1.10;;;18.70;99.90;;;;;;5067424;28;20463;-93
2022/10/24 10:33:52;;;;;;;4.73;1.23;;;18.70;99.90;;;;;;5066236;28;20411;-92
2022/10/24 10:36:25;;;;;;;4.17;1.17;;;18.80;99.90;;;;;;5064538;28;20431;-93
2022/10/24 10:39:12;;;;;;;9.70;2.00;;;18.70;99.90;;;;;;5062172;28;20746;-93
2022/10/24 10:42:01;;;;;;;5.87;1.50;;;18.70;99.90;;;;;;5063378;28;20407;-93
2022/10/24 10:44:56;;;;;;;4.13;1.63;;;18.60;99.90;;;;;;5072756;28;20431;-93
2022/10/24 10:47:41;;;;;;;5.90;1.20;;;18.60;99.90;;;;;;5079745;28;20477;-92
2022/10/24 10:50:27;;;;;;;7.80;2.23;;;18.70;99.90;;;;;;5074655;28;20397;-93
2022/10/24 10:53:06;;;;;;;4.67;1.17;;;18.70;99.90;;;;;;5071653;28;20467;-94
2022/10/24 10:56:00;;;;;;;4.03;1.40;;;18.80;99.90;;;;;;5068762;28;20462;-92
2022/10/24 10:59:07;;;;;;;4.63;1.50;;;18.80;99.90;;;;;;5069131;28;20475;-93
2022/10/24 11:01:36;;;;;;;4.53;1.10;;;18.80;99.90;;;;;;5070520;28;20393;-91
2022/10/24 11:04:30;;;;;;;7.40;1.97;;;19.00;99.90;;;;;;5065758;28;20402;-93
2022/10/24 11:07:01;;;;;;;9.20;1.47;;;19.10;99.90;;;;;;5063953;28;20402;-94
2022/10/24 11:09:36;;;;;;;4.20;1.37;;;19.10;99.90;;;;;;5062387;28;20753;-94
2022/10/24 11:12:20;;;;;;;2.77;1.10;;;19.00;99.90;;;;;;5066297;28;20411;-92
2022/10/24 11:15:18;;;;;;;5.73;1.70;;;19.00;99.90;;;;;;5068177;28;20466;-93
2022/10/24 11:17:59;;;;;;;3.90;1.13;;;19.00;99.90;;;;;;5048142;28;20427;-93
2022/10/24 11:20:37;;;;;;;4.37;1.40;;;19.00;99.90;;;;;;5063480;28;20419;-93
2022/10/24 11:23:11;;;;;;;9.53;1.33;;;18.90;99.90;;;;;;5065671;28;20427;-91
2022/10/24 11:26:04;;;;;;;3.17;1.13;;;18.90;99.90;;;;;;5069412;28;20405;-93
2022/10/24 11:28:56;;;;;;;3.90;1.17;;;18.90;99.90;;;;;;5074340;28;20999;-94
2022/10/24 11:31:35;;;;;;;4.03;1.37;;;18.90;99.90;;;;;;5064351;28;20477;-92
2022/10/24 11:34:20;;;;;;;7.90;1.83;;;18.80;99.90;;;;;;5070888;28;20819;-93
2022/10/24 11:37:01;;;;;;;4.40;1.80;;;18.80;99.90;;;;;;5066638;28;20493;-94
2022/10/24 11:39:44;;;;;;;2.93;1.07;;;18.70;99.90;;;;;;5063038;28;20521;-94
2022/10/24 11:42:41;;;;;;;5.80;1.27;;;18.70;99.90;;;;;;5066164;28;20920;-93
2022/10/24 11:45:18;;;;;;;5.80;1.90;;;18.60;99.90;;;;;;5061669;28;20393;-93
2022/10/24 11:47:46;;;;;;;8.37;1.70;;;18.60;99.90;;;;;;5062007;28;20492;-94
2022/10/24 11:50:40;;;;;;;2.23;0.90;;;18.60;99.90;;;;;;5061070;28;20814;-91
2022/10/24 11:53:30;;;;;;;5.43;1.63;;;18.70;99.90;;;;;;5085982;28;20954;-93
2022/10/24 11:56:14;;;;;;;6.10;1.10;;;18.70;99.90;;;;;;5062641;28;20977;-93
2022/10/24 11:59:07;;;;;;;6.03;1.40;;;18.70;99.90;;;;;;5060840;28;20473;-94
2022/10/24 12:01:55;;;;;;;2.60;1.20;;;18.80;99.90;;;;;;5061641;28;20404;-92
2022/10/24 12:04:33;;;;;;;3.43;1.53;;;18.70;99.90;;;;;;5061515;28;20942;-94
2022/10/24 12:07:26;;;;;;;7.20;1.23;;;18.70;99.90;;;;;;5063586;28;20385;-93
2022/10/24 12:09:57;;;;;;;2.87;1.23;;;18.80;99.90;;;;;;5061448;28;20416;-93
2022/10/24 12:13:01;;;;;;;10.57;2.10;;;18.80;99.90;;;;;;5062569;28;20423;-93
2022/10/24 12:15:42;;;;;;;7.00;1.70;;;18.70;99.90;;;;;;5059359;28;20463;-94
2022/10/24 12:18:29;;;;;;;5.50;1.30;;;18.70;99.90;;;;;;5060006;28;20419;-92
2022/10/24 12:21:00;;;;;;;7.10;1.53;;;18.80;99.90;;;;;;5061447;28;20498;-94
2022/10/24 12:23:26;;;;;;;5.73;1.20;;;18.70;99.90;;;;;;5060492;28;20851;-93
2022/10/24 12:26:12;;;;;;;4.80;1.27;;;18.70;99.90;;;;;;5064483;28;20400;-93
2022/10/24 12:28:38;;;;;;;2.00;0.87;;;18.80;99.90;;;;;;5059511;28;20431;-93
2022/10/24 12:31:30;;;;;;;3.27;1.33;;;18.70;99.90;;;;;;5059729;28;20831;-93
2022/10/24 12:34:14;;;;;;;3.20;1.20;;;18.70;99.90;;;;;;5059319;28;20423;-93
2022/10/24 12:37:04;;;;;;;2.27;1.00;;;18.60;99.90;;;;;;5061238;28;20393;-93
2022/10/24 12:39:33;;;;;;;4.13;0.93;;;18.60;99.90;;;;;;5063263;28;20508;-94
2022/10/24 12:41:59;;;;;;;4.53;1.10;;;18.60;99.90;;;;;;5070104;28;20422;-91
2022/10/24 12:44:31;;;;;;;9.50;1.77;;;18.60;99.90;;;;;;5071288;28;20414;-93
2022/10/24 12:46:57;;;;;;;5.07;1.10;;;18.60;99.90;;;;;;5069343;28;20481;-93
2022/10/24 12:49:30;;;;;;;4.20;1.20;;;18.60;99.90;;;;;;5069877;28;20394;-92
2022/10/24 12:51:57;;;;;;;3.20;1.20;;;18.60;99.90;;;;;;5063351;28;20881;-93
2022/10/24 12:54:44;;;;;;;5.30;1.93;;;18.70;99.90;;;;;;5062287;28;20534;-93
2022/10/24 12:57:12;;;;;;;3.40;1.30;;;18.70;99.90;;;;;;5061667;28;20480;-93
2022/10/24 12:59:52;;;;;;;2.83;1.10;;;18.70;99.90;;;;;;5061215;28;20873;-93
2022/10/24 13:02:42;;;;;;;5.03;1.23;;;18.60;99.90;;;;;;5061377;28;20423;-95
2022/10/24 13:05:07;;;;;;;7.07;1.40;;;18.60;99.90;;;;;;5059833;28;20416;-94
2022/10/24 13:08:09;;;;;;;4.17;1.30;;;18.70;99.90;;;;;;5059613;28;20464;-93